sensor_id;sensor_type;location;lat;lon;timestamp;temperature;humidity
23385;DHT22;11865;45.394;10.978;2023-08-21T00:02:02;25.40;98.30
23385;DHT22;11865;45.394;10.978;2023-08-21T00:04:29;25.30;98.60
23385;DHT22;11865;45.394;10.978;2023-08-21T00:06:57;25.20;99.00
23385;DHT22;11865;45.394;10.978;2023-08-21T00:09:24;25.10;99.00
23385;DHT22;11865;45.394;10.978;2023-08-21T00:11:52;25.10;98.60
23385;DHT22;11865;45.394;10.978;2023-08-21T00:14:19;25.20;98.70
23385;DHT22;11865;45.394;10.978;2023-08-21T00:16:47;25.00;99.10
23385;DHT22;11865;45.394;10.978;2023-08-21T00:19:14;25.10;98.10
23385;DHT22;11865;45.394;10.978;2023-08-21T00:21:42;25.20;98.90
23385;DHT22;11865;45.394;10.978;2023-08-21T00:24:09;25.60;96.90
23385;DHT22;11865;45.394;10.978;2023-08-21T00:26:37;25.10;97.70
23385;DHT22;11865;45.394;10.978;2023-08-21T00:29:04;25.50;96.90
23385;DHT22;11865;45.394;10.978;2023-08-21T00:31:32;25.90;96.20
23385;DHT22;11865;45.394;10.978;2023-08-21T00:33:59;26.00;95.70
23385;DHT22;11865;45.394;10.978;2023-08-21T00:36:27;26.10;95.70
23385;DHT22;11865;45.394;10.978;2023-08-21T00:38:55;26.10;95.50
23385;DHT22;11865;45.394;10.978;2023-08-21T00:41:22;26.20;95.50
23385;DHT22;11865;45.394;10.978;2023-08-21T00:43:50;25.80;97.10
23385;DHT22;11865;45.394;10.978;2023-08-21T00:46:18;25.40;97.60
23385;DHT22;11865;45.394;10.978;2023-08-21T00:48:45;25.20;98.00
23385;DHT22;11865;45.394;10.978;2023-08-21T00:51:15;25.30;97.80
23385;DHT22;11865;45.394;10.978;2023-08-21T00:53:44;25.30;97.80
23385;DHT22;11865;45.394;10.978;2023-08-21T00:56:13;25.50;96.80
23385;DHT22;11865;45.394;10.978;2023-08-21T00:58:41;25.80;96.00
23385;DHT22;11865;45.394;10.978;2023-08-21T01:01:08;25.90;95.30
23385;DHT22;11865;45.394;10.978;2023-08-21T01:03:36;26.00;95.30
23385;DHT22;11865;45.394;10.978;2023-08-21T01:06:04;26.10;95.00
23385;DHT22;11865;45.394;10.978;2023-08-21T01:08:38;26.10;94.80
23385;DHT22;11865;45.394;10.978;2023-08-21T01:14:28;26.10;96.20
23385;DHT22;11865;45.394;10.978;2023-08-21T01:17:00;25.80;96.00
23385;DHT22;11865;45.394;10.978;2023-08-21T01:19:41;25.80;96.50
23385;DHT22;11865;45.394;10.978;2023-08-21T01:22:09;25.60;96.70
23385;DHT22;11865;45.394;10.978;2023-08-21T01:24:37;25.40;97.70
23385;DHT22;11865;45.394;10.978;2023-08-21T01:27:04;25.20;97.90
23385;DHT22;11865;45.394;10.978;2023-08-21T01:29:32;25.00;98.50
23385;DHT22;11865;45.394;10.978;2023-08-21T01:32:15;24.90;98.60
23385;DHT22;11865;45.394;10.978;2023-08-21T01:34:44;24.90;97.60
23385;DHT22;11865;45.394;10.978;2023-08-21T01:37:13;25.20;96.40
23385;DHT22;11865;45.394;10.978;2023-08-21T01:39:41;25.30;98.00
23385;DHT22;11865;45.394;10.978;2023-08-21T01:42:09;25.00;98.50
23385;DHT22;11865;45.394;10.978;2023-08-21T01:44:36;24.80;98.80
23385;DHT22;11865;45.394;10.978;2023-08-21T01:47:04;24.90;98.00
23385;DHT22;11865;45.394;10.978;2023-08-21T01:49:31;24.90;98.60
23385;DHT22;11865;45.394;10.978;2023-08-21T01:51:59;24.80;98.80
23385;DHT22;11865;45.394;10.978;2023-08-21T01:54:26;24.60;99.30
23385;DHT22;11865;45.394;10.978;2023-08-21T01:56:54;24.50;99.60
23385;DHT22;11865;45.394;10.978;2023-08-21T01:59:22;24.30;99.80
23385;DHT22;11865;45.394;10.978;2023-08-21T02:01:50;24.30;99.60
23385;DHT22;11865;45.394;10.978;2023-08-21T02:04:19;24.20;99.90
23385;DHT22;11865;45.394;10.978;2023-08-21T02:06:46;24.20;99.90
23385;DHT22;11865;45.394;10.978;2023-08-21T02:09:14;24.10;99.90
23385;DHT22;11865;45.394;10.978;2023-08-21T02:11:41;24.20;99.90
23385;DHT22;11865;45.394;10.978;2023-08-21T02:14:09;24.10;99.90
23385;DHT22;11865;45.394;10.978;2023-08-21T02:16:36;24.10;99.80
23385;DHT22;11865;45.394;10.978;2023-08-21T02:19:04;24.50;98.00
23385;DHT22;11865;45.394;10.978;2023-08-21T02:21:31;24.60;97.90
23385;DHT22;11865;45.394;10.978;2023-08-21T02:23:59;24.70;96.90
23385;DHT22;11865;45.394;10.978;2023-08-21T02:26:26;25.00;96.80
23385;DHT22;11865;45.394;10.978;2023-08-21T02:28:54;24.90;96.40
23385;DHT22;11865;45.394;10.978;2023-08-21T02:31:22;25.00;96.70
23385;DHT22;11865;45.394;10.978;2023-08-21T02:33:50;25.00;95.50
23385;DHT22;11865;45.394;10.978;2023-08-21T02:36:19;25.20;95.50
23385;DHT22;11865;45.394;10.978;2023-08-21T02:38:46;25.10;97.00
23385;DHT22;11865;45.394;10.978;2023-08-21T02:41:14;24.90;97.60
23385;DHT22;11865;45.394;10.978;2023-08-21T02:43:44;24.70;98.10
23385;DHT22;11865;45.394;10.978;2023-08-21T02:46:12;24.60;98.20
23385;DHT22;11865;45.394;10.978;2023-08-21T02:48:39;24.20;98.70
23385;DHT22;11865;45.394;10.978;2023-08-21T02:51:07;24.20;96.70
23385;DHT22;11865;45.394;10.978;2023-08-21T02:53:35;24.40;98.50
23385;DHT22;11865;45.394;10.978;2023-08-21T02:56:03;24.30;98.60
23385;DHT22;11865;45.394;10.978;2023-08-21T02:58:31;24.20;99.10
23385;DHT22;11865;45.394;10.978;2023-08-21T03:00:59;24.00;99.20
23385;DHT22;11865;45.394;10.978;2023-08-21T03:03:26;24.00;99.60
23385;DHT22;11865;45.394;10.978;2023-08-21T03:05:54;23.90;99.70
23385;DHT22;11865;45.394;10.978;2023-08-21T03:08:21;23.90;99.90
23385;DHT22;11865;45.394;10.978;2023-08-21T03:10:49;23.80;99.90
23385;DHT22;11865;45.394;10.978;2023-08-21T03:13:16;23.70;99.50
23385;DHT22;11865;45.394;10.978;2023-08-21T03:15:46;23.60;99.40
23385;DHT22;11865;45.394;10.978;2023-08-21T03:18:14;23.60;99.90
23385;DHT22;11865;45.394;10.978;2023-08-21T03:20:45;23.60;99.80
23385;DHT22;11865;45.394;10.978;2023-08-21T03:23:13;23.50;99.90
23385;DHT22;11865;45.394;10.978;2023-08-21T03:25:41;23.50;99.70
23385;DHT22;11865;45.394;10.978;2023-08-21T03:30:39;23.40;99.90
23385;DHT22;11865;45.394;10.978;2023-08-21T03:33:07;23.40;99.90
23385;DHT22;11865;45.394;10.978;2023-08-21T03:35:35;23.40;99.90
23385;DHT22;11865;45.394;10.978;2023-08-21T03:38:03;23.30;99.90
23385;DHT22;11865;45.394;10.978;2023-08-21T03:40:39;23.30;99.90
23385;DHT22;11865;45.394;10.978;2023-08-21T03:43:07;23.10;99.90
23385;DHT22;11865;45.394;10.978;2023-08-21T03:45:34;23.10;99.90
23385;DHT22;11865;45.394;10.978;2023-08-21T03:48:03;23.10;99.90
23385;DHT22;11865;45.394;10.978;2023-08-21T03:50:31;23.20;99.90
23385;DHT22;11865;45.394;10.978;2023-08-21T03:52:58;23.20;99.90
23385;DHT22;11865;45.394;10.978;2023-08-21T03:55:26;23.10;99.90
23385;DHT22;11865;45.394;10.978;2023-08-21T03:57:53;23.00;99.90
23385;DHT22;11865;45.394;10.978;2023-08-21T04:00:21;23.00;99.90
23385;DHT22;11865;45.394;10.978;2023-08-21T04:02:50;23.00;99.90
23385;DHT22;11865;45.394;10.978;2023-08-21T04:05:18;23.00;99.90
23385;DHT22;11865;45.394;10.978;2023-08-21T04:07:45;23.00;99.90
23385;DHT22;11865;45.394;10.978;2023-08-21T04:10:12;23.00;99.90
23385;DHT22;11865;45.394;10.978;2023-08-21T04:12:40;23.00;99.90
23385;DHT22;11865;45.394;10.978;2023-08-21T04:15:08;23.00;99.90
23385;DHT22;11865;45.394;10.978;2023-08-21T04:17:36;22.90;99.90
23385;DHT22;11865;45.394;10.978;2023-08-21T04:20:05;22.90;99.90
23385;DHT22;11865;45.394;10.978;2023-08-21T04:22:34;23.00;99.90
23385;DHT22;11865;45.394;10.978;2023-08-21T04:25:02;23.00;99.90
23385;DHT22;11865;45.394;10.978;2023-08-21T04:27:29;23.10;99.90
23385;DHT22;11865;45.394;10.978;2023-08-21T04:29:57;23.10;99.90
23385;DHT22;11865;45.394;10.978;2023-08-21T04:32:24;23.10;99.90
23385;DHT22;11865;45.394;10.978;2023-08-21T04:34:52;23.10;99.90
23385;DHT22;11865;45.394;10.978;2023-08-21T04:37:20;23.20;99.90
23385;DHT22;11865;45.394;10.978;2023-08-21T04:39:54;23.20;99.90
23385;DHT22;11865;45.394;10.978;2023-08-21T04:42:22;23.20;99.90
23385;DHT22;11865;45.394;10.978;2023-08-21T04:44:50;23.10;99.90
23385;DHT22;11865;45.394;10.978;2023-08-21T04:47:25;23.10;99.90
23385;DHT22;11865;45.394;10.978;2023-08-21T04:49:58;23.20;99.90
23385;DHT22;11865;45.394;10.978;2023-08-21T04:52:28;23.30;99.90
23385;DHT22;11865;45.394;10.978;2023-08-21T04:54:56;23.50;99.90
23385;DHT22;11865;45.394;10.978;2023-08-21T04:57:24;23.70;99.90
23385;DHT22;11865;45.394;10.978;2023-08-21T04:59:51;23.60;99.90
23385;DHT22;11865;45.394;10.978;2023-08-21T05:02:21;23.50;99.90
23385;DHT22;11865;45.394;10.978;2023-08-21T05:04:50;23.60;99.90
23385;DHT22;11865;45.394;10.978;2023-08-21T05:07:18;23.80;99.90
23385;DHT22;11865;45.394;10.978;2023-08-21T05:09:46;23.70;99.90
23385;DHT22;11865;45.394;10.978;2023-08-21T05:12:15;23.80;99.90
23385;DHT22;11865;45.394;10.978;2023-08-21T05:14:42;24.30;99.50
23385;DHT22;11865;45.394;10.978;2023-08-21T05:17:10;24.30;99.00
23385;DHT22;11865;45.394;10.978;2023-08-21T05:19:37;24.40;98.70
23385;DHT22;11865;45.394;10.978;2023-08-21T05:22:05;24.50;99.30
23385;DHT22;11865;45.394;10.978;2023-08-21T05:24:34;24.60;99.10
23385;DHT22;11865;45.394;10.978;2023-08-21T05:27:04;24.70;98.60
23385;DHT22;11865;45.394;10.978;2023-08-21T05:29:32;25.00;97.50
23385;DHT22;11865;45.394;10.978;2023-08-21T05:32:00;25.20;98.10
23385;DHT22;11865;45.394;10.978;2023-08-21T05:34:28;25.30;96.70
23385;DHT22;11865;45.394;10.978;2023-08-21T05:36:56;25.60;96.40
23385;DHT22;11865;45.394;10.978;2023-08-21T05:39:24;26.30;97.00
23385;DHT22;11865;45.394;10.978;2023-08-21T05:41:52;27.90;94.30
23385;DHT22;11865;45.394;10.978;2023-08-21T05:44:20;29.10;92.10
23385;DHT22;11865;45.394;10.978;2023-08-21T05:46:48;30.00;93.20
23385;DHT22;11865;45.394;10.978;2023-08-21T05:49:16;30.60;86.40
23385;DHT22;11865;45.394;10.978;2023-08-21T05:51:44;31.10;84.30
23385;DHT22;11865;45.394;10.978;2023-08-21T05:54:11;31.60;86.80
23385;DHT22;11865;45.394;10.978;2023-08-21T05:56:40;32.70;75.90
23385;DHT22;11865;45.394;10.978;2023-08-21T05:59:10;33.10;74.00
23385;DHT22;11865;45.394;10.978;2023-08-21T06:01:38;33.40;76.90
23385;DHT22;11865;45.394;10.978;2023-08-21T06:04:06;33.50;74.10
23385;DHT22;11865;45.394;10.978;2023-08-21T06:06:42;33.90;72.30
23385;DHT22;11865;45.394;10.978;2023-08-21T06:09:10;33.90;72.30
23385;DHT22;11865;45.394;10.978;2023-08-21T06:11:38;34.50;68.90
23385;DHT22;11865;45.394;10.978;2023-08-21T06:14:06;34.00;71.50
23385;DHT22;11865;45.394;10.978;2023-08-21T06:16:34;34.10;69.60
23385;DHT22;11865;45.394;10.978;2023-08-21T06:19:02;34.80;68.40
23385;DHT22;11865;45.394;10.978;2023-08-21T06:21:30;34.90;67.80
23385;DHT22;11865;45.394;10.978;2023-08-21T06:23:57;35.20;67.70
23385;DHT22;11865;45.394;10.978;2023-08-21T06:26:25;34.80;66.80
23385;DHT22;11865;45.394;10.978;2023-08-21T06:28:52;34.70;68.00
23385;DHT22;11865;45.394;10.978;2023-08-21T06:31:20;35.50;66.50
23385;DHT22;11865;45.394;10.978;2023-08-21T06:33:49;35.60;66.00
23385;DHT22;11865;45.394;10.978;2023-08-21T06:36:17;36.30;63.20
23385;DHT22;11865;45.394;10.978;2023-08-21T06:38:45;36.00;64.80
23385;DHT22;11865;45.394;10.978;2023-08-21T06:41:13;35.20;64.50
23385;DHT22;11865;45.394;10.978;2023-08-21T06:43:42;36.00;63.40
23385;DHT22;11865;45.394;10.978;2023-08-21T06:46:14;36.40;63.30
23385;DHT22;11865;45.394;10.978;2023-08-21T06:48:42;36.40;60.90
23385;DHT22;11865;45.394;10.978;2023-08-21T06:51:11;36.40;63.90
23385;DHT22;11865;45.394;10.978;2023-08-21T06:53:42;36.70;63.00
23385;DHT22;11865;45.394;10.978;2023-08-21T06:56:09;36.70;62.80
23385;DHT22;11865;45.394;10.978;2023-08-21T06:58:37;36.80;61.30
23385;DHT22;11865;45.394;10.978;2023-08-21T07:01:04;36.60;59.40
23385;DHT22;11865;45.394;10.978;2023-08-21T07:03:32;37.60;59.80
23385;DHT22;11865;45.394;10.978;2023-08-21T07:06:00;37.40;59.90
23385;DHT22;11865;45.394;10.978;2023-08-21T07:08:28;37.80;60.80
23385;DHT22;11865;45.394;10.978;2023-08-21T07:10:55;37.70;61.50
23385;DHT22;11865;45.394;10.978;2023-08-21T07:13:24;37.30;58.00
23385;DHT22;11865;45.394;10.978;2023-08-21T07:15:53;36.60;63.60
23385;DHT22;11865;45.394;10.978;2023-08-21T07:20:52;35.50;61.80
23385;DHT22;11865;45.394;10.978;2023-08-21T07:23:20;35.40;66.10
23385;DHT22;11865;45.394;10.978;2023-08-21T07:25:48;35.90;63.70
23385;DHT22;11865;45.394;10.978;2023-08-21T07:28:15;36.80;61.90
23385;DHT22;11865;45.394;10.978;2023-08-21T07:30:43;37.20;64.00
23385;DHT22;11865;45.394;10.978;2023-08-21T07:33:11;36.70;61.10
23385;DHT22;11865;45.394;10.978;2023-08-21T07:35:38;37.30;64.30
23385;DHT22;11865;45.394;10.978;2023-08-21T07:38:06;37.60;62.10
23385;DHT22;11865;45.394;10.978;2023-08-21T07:40:33;36.90;61.40
23385;DHT22;11865;45.394;10.978;2023-08-21T07:43:01;36.60;63.80
23385;DHT22;11865;45.394;10.978;2023-08-21T07:45:28;35.80;64.70
23385;DHT22;11865;45.394;10.978;2023-08-21T07:47:55;35.90;65.20
23385;DHT22;11865;45.394;10.978;2023-08-21T07:50:40;35.80;63.60
23385;DHT22;11865;45.394;10.978;2023-08-21T07:53:07;35.70;64.90
23385;DHT22;11865;45.394;10.978;2023-08-21T07:55:35;36.10;63.60
23385;DHT22;11865;45.394;10.978;2023-08-21T07:58:02;35.90;63.30
23385;DHT22;11865;45.394;10.978;2023-08-21T08:00:31;37.00;63.10
23385;DHT22;11865;45.394;10.978;2023-08-21T08:02:59;37.00;62.20
23385;DHT22;11865;45.394;10.978;2023-08-21T08:05:27;36.90;64.40
23385;DHT22;11865;45.394;10.978;2023-08-21T08:07:54;36.00;64.30
23385;DHT22;11865;45.394;10.978;2023-08-21T08:10:22;35.70;63.40
23385;DHT22;11865;45.394;10.978;2023-08-21T08:12:49;35.70;64.90
23385;DHT22;11865;45.394;10.978;2023-08-21T08:15:18;35.30;68.40
23385;DHT22;11865;45.394;10.978;2023-08-21T08:17:45;34.70;66.30
23385;DHT22;11865;45.394;10.978;2023-08-21T08:20:13;34.50;68.70
23385;DHT22;11865;45.394;10.978;2023-08-21T08:22:41;34.00;70.60
23385;DHT22;11865;45.394;10.978;2023-08-21T08:25:09;33.60;65.80
23385;DHT22;11865;45.394;10.978;2023-08-21T08:27:37;33.80;67.20
23385;DHT22;11865;45.394;10.978;2023-08-21T08:30:05;33.60;75.30
23385;DHT22;11865;45.394;10.978;2023-08-21T08:32:34;33.50;70.40
23385;DHT22;11865;45.394;10.978;2023-08-21T08:35:02;33.50;73.80
23385;DHT22;11865;45.394;10.978;2023-08-21T08:37:30;33.40;71.90
23385;DHT22;11865;45.394;10.978;2023-08-21T08:39:57;33.40;70.90
23385;DHT22;11865;45.394;10.978;2023-08-21T08:42:25;33.30;73.10
23385;DHT22;11865;45.394;10.978;2023-08-21T08:44:54;33.30;69.40
23385;DHT22;11865;45.394;10.978;2023-08-21T08:47:23;33.30;70.30
23385;DHT22;11865;45.394;10.978;2023-08-21T08:49:53;33.30;71.80
23385;DHT22;11865;45.394;10.978;2023-08-21T08:52:21;33.30;71.50
23385;DHT22;11865;45.394;10.978;2023-08-21T08:54:50;33.40;68.20
23385;DHT22;11865;45.394;10.978;2023-08-21T08:57:18;33.40;69.20
23385;DHT22;11865;45.394;10.978;2023-08-21T08:59:46;33.40;67.80
23385;DHT22;11865;45.394;10.978;2023-08-21T09:02:15;33.20;68.60
23385;DHT22;11865;45.394;10.978;2023-08-21T09:04:43;33.20;72.70
23385;DHT22;11865;45.394;10.978;2023-08-21T09:07:12;33.50;70.50
23385;DHT22;11865;45.394;10.978;2023-08-21T09:09:46;33.40;70.80
23385;DHT22;11865;45.394;10.978;2023-08-21T09:12:14;33.50;72.10
23385;DHT22;11865;45.394;10.978;2023-08-21T09:14:43;33.60;71.60
23385;DHT22;11865;45.394;10.978;2023-08-21T09:17:11;33.50;70.30
23385;DHT22;11865;45.394;10.978;2023-08-21T09:19:39;33.70;70.00
23385;DHT22;11865;45.394;10.978;2023-08-21T09:22:13;33.60;72.50
23385;DHT22;11865;45.394;10.978;2023-08-21T09:25:03;33.70;68.10
23385;DHT22;11865;45.394;10.978;2023-08-21T09:27:35;33.50;69.70
23385;DHT22;11865;45.394;10.978;2023-08-21T09:30:05;33.60;70.80
23385;DHT22;11865;45.394;10.978;2023-08-21T09:32:52;33.60;71.10
23385;DHT22;11865;45.394;10.978;2023-08-21T09:35:20;33.60;71.00
23385;DHT22;11865;45.394;10.978;2023-08-21T09:37:47;33.30;71.40
23385;DHT22;11865;45.394;10.978;2023-08-21T09:40:15;33.50;71.50
23385;DHT22;11865;45.394;10.978;2023-08-21T09:42:43;33.60;70.80
23385;DHT22;11865;45.394;10.978;2023-08-21T09:45:10;33.40;70.70
23385;DHT22;11865;45.394;10.978;2023-08-21T09:47:39;33.40;71.90
23385;DHT22;11865;45.394;10.978;2023-08-21T09:50:07;33.70;72.00
23385;DHT22;11865;45.394;10.978;2023-08-21T09:52:36;33.60;71.60
23385;DHT22;11865;45.394;10.978;2023-08-21T09:55:05;33.70;71.40
23385;DHT22;11865;45.394;10.978;2023-08-21T09:57:33;33.50;70.60
23385;DHT22;11865;45.394;10.978;2023-08-21T10:00:01;33.50;70.40
23385;DHT22;11865;45.394;10.978;2023-08-21T10:02:38;33.60;71.70
23385;DHT22;11865;45.394;10.978;2023-08-21T10:05:07;33.60;69.60
23385;DHT22;11865;45.394;10.978;2023-08-21T10:07:34;33.40;72.10
23385;DHT22;11865;45.394;10.978;2023-08-21T10:10:03;33.70;70.70
23385;DHT22;11865;45.394;10.978;2023-08-21T10:12:30;33.80;70.30
23385;DHT22;11865;45.394;10.978;2023-08-21T10:14:58;33.90;72.60
23385;DHT22;11865;45.394;10.978;2023-08-21T10:17:26;33.90;71.70
23385;DHT22;11865;45.394;10.978;2023-08-21T10:19:53;33.80;70.60
23385;DHT22;11865;45.394;10.978;2023-08-21T10:22:45;34.00;69.70
23385;DHT22;11865;45.394;10.978;2023-08-21T10:27:59;33.60;70.50
23385;DHT22;11865;45.394;10.978;2023-08-21T10:30:29;33.60;71.30
23385;DHT22;11865;45.394;10.978;2023-08-21T10:32:58;33.80;71.90
23385;DHT22;11865;45.394;10.978;2023-08-21T10:35:31;33.80;69.50
23385;DHT22;11865;45.394;10.978;2023-08-21T10:38:14;33.80;70.50
23385;DHT22;11865;45.394;10.978;2023-08-21T10:41:04;33.50;71.60
23385;DHT22;11865;45.394;10.978;2023-08-21T10:43:45;33.60;71.60
23385;DHT22;11865;45.394;10.978;2023-08-21T10:46:13;33.40;71.90
23385;DHT22;11865;45.394;10.978;2023-08-21T10:48:42;33.80;71.90
23385;DHT22;11865;45.394;10.978;2023-08-21T10:51:10;33.90;70.60
23385;DHT22;11865;45.394;10.978;2023-08-21T10:53:39;33.60;71.90
23385;DHT22;11865;45.394;10.978;2023-08-21T10:56:10;33.60;73.60
23385;DHT22;11865;45.394;10.978;2023-08-21T10:58:44;33.80;70.40
23385;DHT22;11865;45.394;10.978;2023-08-21T11:01:14;34.00;72.20
23385;DHT22;11865;45.394;10.978;2023-08-21T11:03:46;34.30;72.40
23385;DHT22;11865;45.394;10.978;2023-08-21T11:06:14;34.20;71.50
23385;DHT22;11865;45.394;10.978;2023-08-21T11:08:41;34.20;71.00
23385;DHT22;11865;45.394;10.978;2023-08-21T11:11:10;34.30;70.30
23385;DHT22;11865;45.394;10.978;2023-08-21T11:13:38;34.30;70.00
23385;DHT22;11865;45.394;10.978;2023-08-21T11:16:06;34.10;70.30
23385;DHT22;11865;45.394;10.978;2023-08-21T11:18:35;34.20;68.60
23385;DHT22;11865;45.394;10.978;2023-08-21T11:21:07;34.30;70.40
23385;DHT22;11865;45.394;10.978;2023-08-21T11:23:37;34.50;70.20
23385;DHT22;11865;45.394;10.978;2023-08-21T11:26:07;34.40;72.30
23385;DHT22;11865;45.394;10.978;2023-08-21T11:28:48;34.40;74.50
23385;DHT22;11865;45.394;10.978;2023-08-21T11:31:16;34.10;71.30
23385;DHT22;11865;45.394;10.978;2023-08-21T11:33:50;34.10;70.60
23385;DHT22;11865;45.394;10.978;2023-08-21T11:36:18;33.90;72.20
23385;DHT22;11865;45.394;10.978;2023-08-21T11:38:59;34.00;72.20
23385;DHT22;11865;45.394;10.978;2023-08-21T11:41:27;34.20;70.90
23385;DHT22;11865;45.394;10.978;2023-08-21T11:44:02;34.00;70.70
23385;DHT22;11865;45.394;10.978;2023-08-21T11:46:31;34.10;70.60
23385;DHT22;11865;45.394;10.978;2023-08-21T11:49:00;34.10;72.80
23385;DHT22;11865;45.394;10.978;2023-08-21T11:51:27;34.20;71.20
23385;DHT22;11865;45.394;10.978;2023-08-21T11:53:55;34.20;72.10
23385;DHT22;11865;45.394;10.978;2023-08-21T11:56:27;34.30;72.80
23385;DHT22;11865;45.394;10.978;2023-08-21T11:58:56;34.60;70.90
23385;DHT22;11865;45.394;10.978;2023-08-21T12:01:23;34.50;71.60
23385;DHT22;11865;45.394;10.978;2023-08-21T12:03:51;34.90;72.70
23385;DHT22;11865;45.394;10.978;2023-08-21T12:06:23;35.00;72.10
23385;DHT22;11865;45.394;10.978;2023-08-21T12:08:53;35.10;71.80
23385;DHT22;11865;45.394;10.978;2023-08-21T12:11:21;34.90;71.00
23385;DHT22;11865;45.394;10.978;2023-08-21T12:13:48;34.70;72.60
23385;DHT22;11865;45.394;10.978;2023-08-21T12:16:16;34.60;71.40
23385;DHT22;11865;45.394;10.978;2023-08-21T12:18:44;34.30;71.90
23385;DHT22;11865;45.394;10.978;2023-08-21T12:21:11;34.30;70.50
23385;DHT22;11865;45.394;10.978;2023-08-21T12:23:39;34.40;70.70
23385;DHT22;11865;45.394;10.978;2023-08-21T12:26:06;34.50;71.60
23385;DHT22;11865;45.394;10.978;2023-08-21T12:28:33;34.70;71.30
23385;DHT22;11865;45.394;10.978;2023-08-21T12:31:01;34.70;71.00
23385;DHT22;11865;45.394;10.978;2023-08-21T12:33:28;34.70;71.00
23385;DHT22;11865;45.394;10.978;2023-08-21T12:35:56;35.00;70.90
23385;DHT22;11865;45.394;10.978;2023-08-21T12:38:24;34.80;70.20
23385;DHT22;11865;45.394;10.978;2023-08-21T12:40:56;34.50;70.20
23385;DHT22;11865;45.394;10.978;2023-08-21T12:43:24;34.70;71.50
23385;DHT22;11865;45.394;10.978;2023-08-21T12:45:52;34.60;71.00
23385;DHT22;11865;45.394;10.978;2023-08-21T12:48:20;34.60;70.80
23385;DHT22;11865;45.394;10.978;2023-08-21T12:50:47;34.70;70.40
23385;DHT22;11865;45.394;10.978;2023-08-21T12:53:15;34.70;71.60
23385;DHT22;11865;45.394;10.978;2023-08-21T12:55:42;34.40;71.80
23385;DHT22;11865;45.394;10.978;2023-08-21T12:58:10;34.50;72.40
23385;DHT22;11865;45.394;10.978;2023-08-21T13:00:40;34.80;71.10
23385;DHT22;11865;45.394;10.978;2023-08-21T13:03:08;34.50;69.90
23385;DHT22;11865;45.394;10.978;2023-08-21T13:05:36;34.30;72.20
23385;DHT22;11865;45.394;10.978;2023-08-21T13:08:03;34.30;71.80
23385;DHT22;11865;45.394;10.978;2023-08-21T13:10:31;34.40;71.70
23385;DHT22;11865;45.394;10.978;2023-08-21T13:12:59;34.70;72.30
23385;DHT22;11865;45.394;10.978;2023-08-21T13:15:26;34.80;70.70
23385;DHT22;11865;45.394;10.978;2023-08-21T13:17:54;34.60;70.70
23385;DHT22;11865;45.394;10.978;2023-08-21T13:20:22;34.70;71.40
23385;DHT22;11865;45.394;10.978;2023-08-21T13:22:51;34.90;72.30
23385;DHT22;11865;45.394;10.978;2023-08-21T13:25:20;34.80;71.90
23385;DHT22;11865;45.394;10.978;2023-08-21T13:27:48;35.00;69.90
23385;DHT22;11865;45.394;10.978;2023-08-21T13:30:15;34.60;69.70
23385;DHT22;11865;45.394;10.978;2023-08-21T13:32:43;34.70;71.50
23385;DHT22;11865;45.394;10.978;2023-08-21T13:35:11;34.80;71.20
23385;DHT22;11865;45.394;10.978;2023-08-21T13:37:39;34.80;70.30
23385;DHT22;11865;45.394;10.978;2023-08-21T13:40:07;34.80;71.40
23385;DHT22;11865;45.394;10.978;2023-08-21T13:42:42;35.00;71.60
23385;DHT22;11865;45.394;10.978;2023-08-21T13:45:12;34.70;71.70
23385;DHT22;11865;45.394;10.978;2023-08-21T13:47:45;34.90;70.40
23385;DHT22;11865;45.394;10.978;2023-08-21T13:50:17;35.10;69.30
23385;DHT22;11865;45.394;10.978;2023-08-21T13:52:46;34.90;67.80
23385;DHT22;11865;45.394;10.978;2023-08-21T13:55:14;34.90;70.30
23385;DHT22;11865;45.394;10.978;2023-08-21T13:57:42;34.70;70.30
23385;DHT22;11865;45.394;10.978;2023-08-21T14:00:11;34.60;69.30
23385;DHT22;11865;45.394;10.978;2023-08-21T14:02:45;34.60;71.70
23385;DHT22;11865;45.394;10.978;2023-08-21T14:05:13;34.70;71.90
23385;DHT22;11865;45.394;10.978;2023-08-21T14:07:41;34.70;70.50
23385;DHT22;11865;45.394;10.978;2023-08-21T14:10:09;34.70;69.40
23385;DHT22;11865;45.394;10.978;2023-08-21T14:12:37;34.90;70.10
23385;DHT22;11865;45.394;10.978;2023-08-21T14:15:09;34.70;70.60
23385;DHT22;11865;45.394;10.978;2023-08-21T14:17:37;34.80;70.60
23385;DHT22;11865;45.394;10.978;2023-08-21T14:20:06;34.90;71.90
23385;DHT22;11865;45.394;10.978;2023-08-21T14:22:34;35.10;70.30
23385;DHT22;11865;45.394;10.978;2023-08-21T14:25:02;35.10;70.70
23385;DHT22;11865;45.394;10.978;2023-08-21T14:27:33;35.20;69.50
23385;DHT22;11865;45.394;10.978;2023-08-21T14:30:00;35.10;70.50
23385;DHT22;11865;45.394;10.978;2023-08-21T14:32:28;35.00;70.30
23385;DHT22;11865;45.394;10.978;2023-08-21T14:34:55;34.90;69.40
23385;DHT22;11865;45.394;10.978;2023-08-21T14:37:23;35.00;68.80
23385;DHT22;11865;45.394;10.978;2023-08-21T14:39:51;35.00;69.40
23385;DHT22;11865;45.394;10.978;2023-08-21T14:42:18;35.00;69.40
23385;DHT22;11865;45.394;10.978;2023-08-21T14:44:46;35.00;67.60
23385;DHT22;11865;45.394;10.978;2023-08-21T14:47:13;35.10;68.90
23385;DHT22;11865;45.394;10.978;2023-08-21T14:49:41;35.10;70.40
23385;DHT22;11865;45.394;10.978;2023-08-21T14:52:09;35.00;67.20
23385;DHT22;11865;45.394;10.978;2023-08-21T14:54:36;35.10;69.00
23385;DHT22;11865;45.394;10.978;2023-08-21T14:57:04;35.10;69.80
23385;DHT22;11865;45.394;10.978;2023-08-21T14:59:31;34.90;70.90
23385;DHT22;11865;45.394;10.978;2023-08-21T15:01:59;35.00;69.70
23385;DHT22;11865;45.394;10.978;2023-08-21T15:04:26;35.00;70.60
23385;DHT22;11865;45.394;10.978;2023-08-21T15:06:54;35.10;70.40
23385;DHT22;11865;45.394;10.978;2023-08-21T15:09:21;35.20;69.50
23385;DHT22;11865;45.394;10.978;2023-08-21T15:11:49;35.20;70.00
23385;DHT22;11865;45.394;10.978;2023-08-21T15:14:16;35.20;69.80
23385;DHT22;11865;45.394;10.978;2023-08-21T15:16:44;35.20;68.90
23385;DHT22;11865;45.394;10.978;2023-08-21T15:19:11;35.20;69.00
23385;DHT22;11865;45.394;10.978;2023-08-21T15:21:39;35.20;69.50
23385;DHT22;11865;45.394;10.978;2023-08-21T15:24:09;35.10;69.20
23385;DHT22;11865;45.394;10.978;2023-08-21T15:26:36;35.10;69.00
23385;DHT22;11865;45.394;10.978;2023-08-21T15:29:04;35.10;69.00
23385;DHT22;11865;45.394;10.978;2023-08-21T15:31:31;35.00;69.30
23385;DHT22;11865;45.394;10.978;2023-08-21T15:33:59;34.90;68.80
23385;DHT22;11865;45.394;10.978;2023-08-21T15:36:26;34.80;67.70